Terminal Aerodrome Forecast
Issued by NWS Jackson, MS

Home | Current Version | Previous Version | Text Only | Print | Product List | Glossary On
Versions: 1 2 3 4 5 6 7 8 9 10 11 12
000
FTUS44 KJAN 061120
TAFHBG
TAF
KHBG 061120Z 0612/0712 00000KT 6SM BR SKC
     FM061400 14006KT P6SM SCT050 SCT250
     FM061800 16009KT P6SM VCTS SCT050CB BKN250
     FM070200 14003KT 6SM BR SCT007
     FM070600 00000KT 4SM BR BKN005=

USA.gov is the U.S. government's official web portal to all federal, state and local government web resources and services.